Terminal Aerodrome Forecast
Issued by NWS

Home | Current Version | Previous Version | Text Only | Print | Product List | Glossary Off
Versions: 1 2 3 4 5 6 7 8 9 10 11 12 13 14 15 16

000
FTUS41 KCLE 182331
TAFFDY
TAF
KFDY 182331Z 1900/1924 04010KT 6SM -RA OVC035
      TEMPO 1900/1903 5SM -RA OVC025
     FM190300 04012G20KT 4SM -RASN OVC015
     FM190500 01012G20KT 1 1/2SM -SN OVC005
     FM191000 32014G22KT 3SM -SN OVC010
     FM191500 32015G25KT P6SM BKN025=

USA.gov is the U.S. government's official web portal to all federal, state and local government web resources and services.